sensor_id;sensor_type;location;lat;lon;timestamp;temperature;humidity
31129;DHT22;17777;48.770;8.944;2024-03-29T00:01:22;11.40;44.50
31129;DHT22;17777;48.770;8.944;2024-03-29T00:03:48;11.40;44.50
31129;DHT22;17777;48.770;8.944;2024-03-29T00:06:13;11.40;44.50
31129;DHT22;17777;48.770;8.944;2024-03-29T00:08:39;11.40;44.50
31129;DHT22;17777;48.770;8.944;2024-03-29T00:11:05;11.50;44.60
31129;DHT22;17777;48.770;8.944;2024-03-29T00:13:30;11.50;44.50
31129;DHT22;17777;48.770;8.944;2024-03-29T00:15:57;11.50;44.60
31129;DHT22;17777;48.770;8.944;2024-03-29T00:18:23;11.50;44.60
31129;DHT22;17777;48.770;8.944;2024-03-29T00:20:49;11.50;44.60
31129;DHT22;17777;48.770;8.944;2024-03-29T00:23:14;11.60;44.60
31129;DHT22;17777;48.770;8.944;2024-03-29T00:25:40;11.60;44.60
31129;DHT22;17777;48.770;8.944;2024-03-29T00:28:07;11.60;44.60
31129;DHT22;17777;48.770;8.944;2024-03-29T00:30:33;11.70;44.60
31129;DHT22;17777;48.770;8.944;2024-03-29T00:32:59;11.70;44.60
31129;DHT22;17777;48.770;8.944;2024-03-29T00:35:24;11.70;44.50
31129;DHT22;17777;48.770;8.944;2024-03-29T00:37:50;11.70;44.50
31129;DHT22;17777;48.770;8.944;2024-03-29T00:40:17;11.70;44.50
31129;DHT22;17777;48.770;8.944;2024-03-29T00:42:43;11.70;44.50
31129;DHT22;17777;48.770;8.944;2024-03-29T00:45:09;11.70;44.50
31129;DHT22;17777;48.770;8.944;2024-03-29T00:47:34;11.70;44.60
31129;DHT22;17777;48.770;8.944;2024-03-29T00:50:00;11.70;44.60
31129;DHT22;17777;48.770;8.944;2024-03-29T00:52:26;11.70;44.60
31129;DHT22;17777;48.770;8.944;2024-03-29T00:54:52;11.80;44.70
31129;DHT22;17777;48.770;8.944;2024-03-29T00:57:18;11.80;44.70
31129;DHT22;17777;48.770;8.944;2024-03-29T00:59:44;11.80;44.70
31129;DHT22;17777;48.770;8.944;2024-03-29T01:02:10;11.80;44.70
31129;DHT22;17777;48.770;8.944;2024-03-29T01:04:36;11.80;44.70
31129;DHT22;17777;48.770;8.944;2024-03-29T01:07:03;11.80;44.70
31129;DHT22;17777;48.770;8.944;2024-03-29T01:09:29;11.80;44.70
31129;DHT22;17777;48.770;8.944;2024-03-29T01:11:55;11.80;44.80
31129;DHT22;17777;48.770;8.944;2024-03-29T01:14:21;11.90;44.90
31129;DHT22;17777;48.770;8.944;2024-03-29T01:16:47;11.90;44.90
31129;DHT22;17777;48.770;8.944;2024-03-29T01:19:13;11.90;45.00
31129;DHT22;17777;48.770;8.944;2024-03-29T01:21:38;11.90;44.90
31129;DHT22;17777;48.770;8.944;2024-03-29T01:24:04;11.90;44.90
31129;DHT22;17777;48.770;8.944;2024-03-29T01:26:30;11.90;44.80
31129;DHT22;17777;48.770;8.944;2024-03-29T01:28:57;11.90;44.80
31129;DHT22;17777;48.770;8.944;2024-03-29T01:31:23;11.90;44.80
31129;DHT22;17777;48.770;8.944;2024-03-29T01:33:52;11.90;44.90
31129;DHT22;17777;48.770;8.944;2024-03-29T01:36:17;11.90;45.00
31129;DHT22;17777;48.770;8.944;2024-03-29T01:38:43;11.90;45.00
31129;DHT22;17777;48.770;8.944;2024-03-29T01:41:11;11.90;45.00
31129;DHT22;17777;48.770;8.944;2024-03-29T01:43:37;11.90;44.90
31129;DHT22;17777;48.770;8.944;2024-03-29T01:46:05;11.90;44.90
31129;DHT22;17777;48.770;8.944;2024-03-29T01:48:33;12.00;44.90
31129;DHT22;17777;48.770;8.944;2024-03-29T01:51:00;12.00;44.90
31129;DHT22;17777;48.770;8.944;2024-03-29T01:53:27;12.00;44.90
31129;DHT22;17777;48.770;8.944;2024-03-29T01:55:54;12.00;44.90
31129;DHT22;17777;48.770;8.944;2024-03-29T01:58:20;12.00;45.00
31129;DHT22;17777;48.770;8.944;2024-03-29T02:00:55;11.90;45.00
31129;DHT22;17777;48.770;8.944;2024-03-29T02:03:23;12.00;45.10
31129;DHT22;17777;48.770;8.944;2024-03-29T02:05:50;12.00;45.00
31129;DHT22;17777;48.770;8.944;2024-03-29T02:08:16;12.00;45.00
31129;DHT22;17777;48.770;8.944;2024-03-29T02:10:43;12.00;45.10
31129;DHT22;17777;48.770;8.944;2024-03-29T02:13:11;12.10;45.10
31129;DHT22;17777;48.770;8.944;2024-03-29T02:15:38;12.00;45.10
31129;DHT22;17777;48.770;8.944;2024-03-29T02:18:04;12.10;45.10
31129;DHT22;17777;48.770;8.944;2024-03-29T02:20:32;12.10;45.20
31129;DHT22;17777;48.770;8.944;2024-03-29T02:23:02;12.10;45.20
31129;DHT22;17777;48.770;8.944;2024-03-29T02:25:31;12.10;45.30
31129;DHT22;17777;48.770;8.944;2024-03-29T02:27:58;12.20;45.80
31129;DHT22;17777;48.770;8.944;2024-03-29T02:30:26;12.20;45.10
31129;DHT22;17777;48.770;8.944;2024-03-29T02:32:52;12.20;45.00
31129;DHT22;17777;48.770;8.944;2024-03-29T02:35:18;12.20;45.00
31129;DHT22;17777;48.770;8.944;2024-03-29T02:37:44;12.20;45.00
31129;DHT22;17777;48.770;8.944;2024-03-29T02:40:10;12.20;45.00
31129;DHT22;17777;48.770;8.944;2024-03-29T02:42:36;12.20;45.00
31129;DHT22;17777;48.770;8.944;2024-03-29T02:45:03;12.20;44.90
31129;DHT22;17777;48.770;8.944;2024-03-29T02:47:29;12.20;44.90
31129;DHT22;17777;48.770;8.944;2024-03-29T02:49:55;12.10;44.90
31129;DHT22;17777;48.770;8.944;2024-03-29T02:52:21;12.10;44.90
31129;DHT22;17777;48.770;8.944;2024-03-29T02:54:46;12.10;44.90
31129;DHT22;17777;48.770;8.944;2024-03-29T02:57:13;12.10;44.90
31129;DHT22;17777;48.770;8.944;2024-03-29T02:59:40;12.10;45.00
31129;DHT22;17777;48.770;8.944;2024-03-29T03:02:06;12.10;45.00
31129;DHT22;17777;48.770;8.944;2024-03-29T03:04:32;12.10;44.90
31129;DHT22;17777;48.770;8.944;2024-03-29T03:06:58;12.10;44.90
31129;DHT22;17777;48.770;8.944;2024-03-29T03:09:43;12.10;45.00
31129;DHT22;17777;48.770;8.944;2024-03-29T03:12:29;12.10;45.10
31129;DHT22;17777;48.770;8.944;2024-03-29T03:14:56;12.10;45.10
31129;DHT22;17777;48.770;8.944;2024-03-29T03:17:28;12.20;45.10
31129;DHT22;17777;48.770;8.944;2024-03-29T03:19:54;12.20;45.20
31129;DHT22;17777;48.770;8.944;2024-03-29T03:22:20;12.20;45.30
31129;DHT22;17777;48.770;8.944;2024-03-29T03:24:46;12.30;45.30
31129;DHT22;17777;48.770;8.944;2024-03-29T03:27:11;12.30;45.30
31129;DHT22;17777;48.770;8.944;2024-03-29T03:29:37;12.30;45.30
31129;DHT22;17777;48.770;8.944;2024-03-29T03:32:04;12.30;45.20
31129;DHT22;17777;48.770;8.944;2024-03-29T03:34:31;12.30;45.30
31129;DHT22;17777;48.770;8.944;2024-03-29T03:36:57;12.30;45.40
31129;DHT22;17777;48.770;8.944;2024-03-29T03:39:23;12.40;45.40
31129;DHT22;17777;48.770;8.944;2024-03-29T03:41:49;12.40;45.30
31129;DHT22;17777;48.770;8.944;2024-03-29T03:44:16;12.40;45.30
31129;DHT22;17777;48.770;8.944;2024-03-29T03:46:41;12.40;45.30
31129;DHT22;17777;48.770;8.944;2024-03-29T03:49:08;12.30;45.20
31129;DHT22;17777;48.770;8.944;2024-03-29T03:51:33;12.30;45.20
31129;DHT22;17777;48.770;8.944;2024-03-29T03:53:59;12.30;45.30
31129;DHT22;17777;48.770;8.944;2024-03-29T03:56:25;12.30;45.40
31129;DHT22;17777;48.770;8.944;2024-03-29T03:58:50;12.30;45.50
31129;DHT22;17777;48.770;8.944;2024-03-29T04:01:16;12.30;45.50
31129;DHT22;17777;48.770;8.944;2024-03-29T04:03:42;12.30;45.60
31129;DHT22;17777;48.770;8.944;2024-03-29T04:06:08;12.30;45.70
31129;DHT22;17777;48.770;8.944;2024-03-29T04:08:34;12.30;45.70
31129;DHT22;17777;48.770;8.944;2024-03-29T04:11:03;12.40;45.80
31129;DHT22;17777;48.770;8.944;2024-03-29T04:13:29;12.40;45.70
31129;DHT22;17777;48.770;8.944;2024-03-29T04:16:06;12.40;45.50
31129;DHT22;17777;48.770;8.944;2024-03-29T04:18:36;12.40;45.60
31129;DHT22;17777;48.770;8.944;2024-03-29T04:21:02;12.40;45.40
31129;DHT22;17777;48.770;8.944;2024-03-29T04:23:29;12.40;45.40
31129;DHT22;17777;48.770;8.944;2024-03-29T04:25:59;12.40;45.30
31129;DHT22;17777;48.770;8.944;2024-03-29T04:28:26;12.30;45.30
31129;DHT22;17777;48.770;8.944;2024-03-29T04:30:53;12.30;45.30
31129;DHT22;17777;48.770;8.944;2024-03-29T04:33:22;12.20;45.30
31129;DHT22;17777;48.770;8.944;2024-03-29T04:36:01;12.20;45.70
31129;DHT22;17777;48.770;8.944;2024-03-29T04:38:28;12.10;45.60
31129;DHT22;17777;48.770;8.944;2024-03-29T04:40:56;12.10;45.60
31129;DHT22;17777;48.770;8.944;2024-03-29T04:43:27;12.10;45.70
31129;DHT22;17777;48.770;8.944;2024-03-29T04:46:04;12.10;45.90
31129;DHT22;17777;48.770;8.944;2024-03-29T04:48:45;12.10;45.70
31129;DHT22;17777;48.770;8.944;2024-03-29T04:51:11;12.10;45.80
31129;DHT22;17777;48.770;8.944;2024-03-29T04:53:39;12.10;45.70
31129;DHT22;17777;48.770;8.944;2024-03-29T04:56:05;12.10;45.60
31129;DHT22;17777;48.770;8.944;2024-03-29T04:58:32;12.10;45.70
31129;DHT22;17777;48.770;8.944;2024-03-29T05:00:58;12.20;45.90
31129;DHT22;17777;48.770;8.944;2024-03-29T05:03:24;12.20;45.90
31129;DHT22;17777;48.770;8.944;2024-03-29T05:05:51;12.20;45.90
31129;DHT22;17777;48.770;8.944;2024-03-29T05:08:17;12.20;45.90
31129;DHT22;17777;48.770;8.944;2024-03-29T05:10:44;12.20;45.90
31129;DHT22;17777;48.770;8.944;2024-03-29T05:13:10;12.20;45.90
31129;DHT22;17777;48.770;8.944;2024-03-29T05:15:36;12.20;46.00
31129;DHT22;17777;48.770;8.944;2024-03-29T05:18:02;12.20;45.90
31129;DHT22;17777;48.770;8.944;2024-03-29T05:20:29;12.20;45.90
31129;DHT22;17777;48.770;8.944;2024-03-29T05:22:56;12.20;45.90
31129;DHT22;17777;48.770;8.944;2024-03-29T05:25:21;12.20;46.00
31129;DHT22;17777;48.770;8.944;2024-03-29T05:27:49;12.20;45.90
31129;DHT22;17777;48.770;8.944;2024-03-29T05:30:15;12.20;45.70
31129;DHT22;17777;48.770;8.944;2024-03-29T05:32:42;12.30;45.80
31129;DHT22;17777;48.770;8.944;2024-03-29T05:35:08;12.30;45.80
31129;DHT22;17777;48.770;8.944;2024-03-29T05:37:35;12.30;45.80
31129;DHT22;17777;48.770;8.944;2024-03-29T05:40:01;12.30;46.50
31129;DHT22;17777;48.770;8.944;2024-03-29T05:42:31;12.30;45.80
31129;DHT22;17777;48.770;8.944;2024-03-29T05:44:58;12.30;45.80
31129;DHT22;17777;48.770;8.944;2024-03-29T05:47:24;12.40;45.80
31129;DHT22;17777;48.770;8.944;2024-03-29T05:49:51;12.40;45.80
31129;DHT22;17777;48.770;8.944;2024-03-29T05:52:17;12.50;45.90
31129;DHT22;17777;48.770;8.944;2024-03-29T05:54:44;12.50;45.90
31129;DHT22;17777;48.770;8.944;2024-03-29T05:57:11;12.50;45.80
31129;DHT22;17777;48.770;8.944;2024-03-29T05:59:37;12.50;45.80
31129;DHT22;17777;48.770;8.944;2024-03-29T06:02:06;12.50;45.80
31129;DHT22;17777;48.770;8.944;2024-03-29T06:04:31;12.60;46.00
31129;DHT22;17777;48.770;8.944;2024-03-29T06:07:03;12.60;46.00
31129;DHT22;17777;48.770;8.944;2024-03-29T06:09:30;12.60;46.00
31129;DHT22;17777;48.770;8.944;2024-03-29T06:11:57;12.70;46.00
31129;DHT22;17777;48.770;8.944;2024-03-29T06:14:23;12.70;45.90
31129;DHT22;17777;48.770;8.944;2024-03-29T06:17:21;12.70;45.80
31129;DHT22;17777;48.770;8.944;2024-03-29T06:19:54;12.70;45.70
31129;DHT22;17777;48.770;8.944;2024-03-29T06:22:25;12.70;45.80
31129;DHT22;17777;48.770;8.944;2024-03-29T06:24:51;12.80;45.80
31129;DHT22;17777;48.770;8.944;2024-03-29T06:27:18;12.70;45.70
31129;DHT22;17777;48.770;8.944;2024-03-29T06:29:44;12.80;45.80
31129;DHT22;17777;48.770;8.944;2024-03-29T06:32:10;12.80;45.90
31129;DHT22;17777;48.770;8.944;2024-03-29T06:34:39;12.80;45.90
31129;DHT22;17777;48.770;8.944;2024-03-29T06:37:04;12.80;45.90
31129;DHT22;17777;48.770;8.944;2024-03-29T06:39:30;12.80;45.90
31129;DHT22;17777;48.770;8.944;2024-03-29T06:41:56;12.80;45.90
31129;DHT22;17777;48.770;8.944;2024-03-29T06:44:22;12.90;46.00
31129;DHT22;17777;48.770;8.944;2024-03-29T06:46:48;12.90;46.00
31129;DHT22;17777;48.770;8.944;2024-03-29T06:49:14;12.90;46.10
31129;DHT22;17777;48.770;8.944;2024-03-29T06:51:40;12.90;46.10
31129;DHT22;17777;48.770;8.944;2024-03-29T06:54:06;12.90;46.00
31129;DHT22;17777;48.770;8.944;2024-03-29T06:56:32;13.00;46.10
31129;DHT22;17777;48.770;8.944;2024-03-29T06:58:58;13.00;46.00
31129;DHT22;17777;48.770;8.944;2024-03-29T07:01:24;13.10;45.90
31129;DHT22;17777;48.770;8.944;2024-03-29T07:03:50;13.10;45.70
31129;DHT22;17777;48.770;8.944;2024-03-29T07:06:16;13.10;45.60
31129;DHT22;17777;48.770;8.944;2024-03-29T07:08:42;13.10;45.60
31129;DHT22;17777;48.770;8.944;2024-03-29T07:11:08;13.10;45.70
31129;DHT22;17777;48.770;8.944;2024-03-29T07:13:33;13.20;45.70
31129;DHT22;17777;48.770;8.944;2024-03-29T07:16:00;13.20;45.70
31129;DHT22;17777;48.770;8.944;2024-03-29T07:18:25;13.20;45.70
31129;DHT22;17777;48.770;8.944;2024-03-29T07:20:51;13.20;45.80
31129;DHT22;17777;48.770;8.944;2024-03-29T07:23:18;13.30;45.90
31129;DHT22;17777;48.770;8.944;2024-03-29T07:26:01;13.30;45.90
31129;DHT22;17777;48.770;8.944;2024-03-29T07:28:29;13.30;46.00
31129;DHT22;17777;48.770;8.944;2024-03-29T07:30:55;13.40;46.10
31129;DHT22;17777;48.770;8.944;2024-03-29T07:33:25;13.40;46.20
31129;DHT22;17777;48.770;8.944;2024-03-29T07:35:54;13.30;46.40
31129;DHT22;17777;48.770;8.944;2024-03-29T07:38:21;13.30;46.40
31129;DHT22;17777;48.770;8.944;2024-03-29T07:40:48;13.40;46.60
31129;DHT22;17777;48.770;8.944;2024-03-29T07:43:22;13.40;46.70
31129;DHT22;17777;48.770;8.944;2024-03-29T07:45:48;13.40;47.20
31129;DHT22;17777;48.770;8.944;2024-03-29T07:48:18;13.40;47.10
31129;DHT22;17777;48.770;8.944;2024-03-29T07:50:45;13.40;47.10
31129;DHT22;17777;48.770;8.944;2024-03-29T07:53:11;13.40;47.10
31129;DHT22;17777;48.770;8.944;2024-03-29T07:55:38;13.40;47.20
31129;DHT22;17777;48.770;8.944;2024-03-29T07:58:05;13.40;47.30
31129;DHT22;17777;48.770;8.944;2024-03-29T08:00:32;13.40;47.30
31129;DHT22;17777;48.770;8.944;2024-03-29T08:02:59;13.40;47.40
31129;DHT22;17777;48.770;8.944;2024-03-29T08:05:25;13.40;47.60
31129;DHT22;17777;48.770;8.944;2024-03-29T08:07:51;13.30;47.70
31129;DHT22;17777;48.770;8.944;2024-03-29T08:10:17;13.30;47.80
31129;DHT22;17777;48.770;8.944;2024-03-29T08:12:43;13.20;48.00
31129;DHT22;17777;48.770;8.944;2024-03-29T08:15:08;13.20;48.00
31129;DHT22;17777;48.770;8.944;2024-03-29T08:17:35;13.10;48.20
31129;DHT22;17777;48.770;8.944;2024-03-29T08:20:02;13.10;48.30
31129;DHT22;17777;48.770;8.944;2024-03-29T08:22:28;13.10;48.50
31129;DHT22;17777;48.770;8.944;2024-03-29T08:24:55;13.00;48.80
31129;DHT22;17777;48.770;8.944;2024-03-29T08:27:21;13.00;48.90
31129;DHT22;17777;48.770;8.944;2024-03-29T08:29:46;13.00;49.10
31129;DHT22;17777;48.770;8.944;2024-03-29T08:32:14;13.00;49.20
31129;DHT22;17777;48.770;8.944;2024-03-29T08:34:40;13.00;49.40
31129;DHT22;17777;48.770;8.944;2024-03-29T08:37:06;13.00;49.40
31129;DHT22;17777;48.770;8.944;2024-03-29T08:39:32;13.00;50.30
31129;DHT22;17777;48.770;8.944;2024-03-29T08:41:58;13.00;49.80
31129;DHT22;17777;48.770;8.944;2024-03-29T08:44:24;13.00;50.00
31129;DHT22;17777;48.770;8.944;2024-03-29T08:46:51;13.10;50.20
31129;DHT22;17777;48.770;8.944;2024-03-29T08:49:16;13.10;50.40
31129;DHT22;17777;48.770;8.944;2024-03-29T08:51:42;13.10;50.50
31129;DHT22;17777;48.770;8.944;2024-03-29T08:54:08;13.20;50.60
31129;DHT22;17777;48.770;8.944;2024-03-29T08:56:34;13.20;50.60
31129;DHT22;17777;48.770;8.944;2024-03-29T08:59:03;13.30;50.80
31129;DHT22;17777;48.770;8.944;2024-03-29T09:01:34;13.30;50.90
31129;DHT22;17777;48.770;8.944;2024-03-29T09:04:01;13.40;51.10
31129;DHT22;17777;48.770;8.944;2024-03-29T09:06:28;13.40;51.10
31129;DHT22;17777;48.770;8.944;2024-03-29T09:08:54;13.50;51.10
31129;DHT22;17777;48.770;8.944;2024-03-29T09:11:20;13.60;51.30
31129;DHT22;17777;48.770;8.944;2024-03-29T09:13:46;13.70;51.40
31129;DHT22;17777;48.770;8.944;2024-03-29T09:16:11;13.70;51.40
31129;DHT22;17777;48.770;8.944;2024-03-29T09:18:37;13.70;51.50
31129;DHT22;17777;48.770;8.944;2024-03-29T09:21:04;13.80;51.60
31129;DHT22;17777;48.770;8.944;2024-03-29T09:23:30;13.90;51.70
31129;DHT22;17777;48.770;8.944;2024-03-29T09:25:56;13.90;52.30
31129;DHT22;17777;48.770;8.944;2024-03-29T09:28:25;14.00;51.80
31129;DHT22;17777;48.770;8.944;2024-03-29T09:30:58;14.00;52.10
31129;DHT22;17777;48.770;8.944;2024-03-29T09:33:26;14.00;52.20
31129;DHT22;17777;48.770;8.944;2024-03-29T09:35:52;14.10;51.80
31129;DHT22;17777;48.770;8.944;2024-03-29T09:38:19;14.10;51.80
31129;DHT22;17777;48.770;8.944;2024-03-29T09:40:46;14.10;51.80
31129;DHT22;17777;48.770;8.944;2024-03-29T09:43:13;14.20;51.90
31129;DHT22;17777;48.770;8.944;2024-03-29T09:45:40;14.20;52.10
31129;DHT22;17777;48.770;8.944;2024-03-29T09:48:08;14.20;52.10
31129;DHT22;17777;48.770;8.944;2024-03-29T09:50:37;14.20;52.30
31129;DHT22;17777;48.770;8.944;2024-03-29T09:53:06;14.20;52.60
31129;DHT22;17777;48.770;8.944;2024-03-29T09:55:35;14.30;52.70
31129;DHT22;17777;48.770;8.944;2024-03-29T09:58:02;14.30;52.40
31129;DHT22;17777;48.770;8.944;2024-03-29T10:00:28;14.30;52.80
31129;DHT22;17777;48.770;8.944;2024-03-29T10:02:56;14.30;52.60
31129;DHT22;17777;48.770;8.944;2024-03-29T10:05:26;14.30;52.90
31129;DHT22;17777;48.770;8.944;2024-03-29T10:07:53;14.40;53.00
31129;DHT22;17777;48.770;8.944;2024-03-29T10:10:19;14.40;53.00
31129;DHT22;17777;48.770;8.944;2024-03-29T10:12:45;14.50;53.20
31129;DHT22;17777;48.770;8.944;2024-03-29T10:15:12;14.50;53.10
31129;DHT22;17777;48.770;8.944;2024-03-29T10:17:47;14.60;53.20
31129;DHT22;17777;48.770;8.944;2024-03-29T10:20:19;14.60;53.80
31129;DHT22;17777;48.770;8.944;2024-03-29T10:22:46;14.70;53.70
31129;DHT22;17777;48.770;8.944;2024-03-29T10:25:15;14.70;53.40
31129;DHT22;17777;48.770;8.944;2024-03-29T10:27:42;14.70;54.00
31129;DHT22;17777;48.770;8.944;2024-03-29T10:30:09;14.80;53.60
31129;DHT22;17777;48.770;8.944;2024-03-29T10:32:39;14.90;53.70
31129;DHT22;17777;48.770;8.944;2024-03-29T10:35:06;14.90;54.00
31129;DHT22;17777;48.770;8.944;2024-03-29T10:37:33;15.00;53.70
31129;DHT22;17777;48.770;8.944;2024-03-29T10:40:08;15.00;53.70
31129;DHT22;17777;48.770;8.944;2024-03-29T10:42:37;15.10;54.00
31129;DHT22;17777;48.770;8.944;2024-03-29T10:45:05;15.10;53.90
31129;DHT22;17777;48.770;8.944;2024-03-29T10:47:32;15.20;53.90
31129;DHT22;17777;48.770;8.944;2024-03-29T10:49:59;15.30;53.80
31129;DHT22;17777;48.770;8.944;2024-03-29T10:52:25;15.30;53.80
31129;DHT22;17777;48.770;8.944;2024-03-29T10:54:52;15.40;54.00
31129;DHT22;17777;48.770;8.944;2024-03-29T10:57:25;15.50;53.90
31129;DHT22;17777;48.770;8.944;2024-03-29T11:00:11;15.50;54.30
31129;DHT22;17777;48.770;8.944;2024-03-29T11:02:50;15.50;54.80
31129;DHT22;17777;48.770;8.944;2024-03-29T11:05:32;15.60;54.60
31129;DHT22;17777;48.770;8.944;2024-03-29T11:08:01;15.70;53.90
31129;DHT22;17777;48.770;8.944;2024-03-29T11:10:42;15.70;53.90
31129;DHT22;17777;48.770;8.944;2024-03-29T11:16:15;15.80;54.80
31129;DHT22;17777;48.770;8.944;2024-03-29T11:18:42;15.90;53.70
31129;DHT22;17777;48.770;8.944;2024-03-29T11:21:09;16.00;53.80
31129;DHT22;17777;48.770;8.944;2024-03-29T11:23:36;16.00;53.60
31129;DHT22;17777;48.770;8.944;2024-03-29T11:26:03;16.10;53.60
31129;DHT22;17777;48.770;8.944;2024-03-29T11:28:30;16.10;53.30
31129;DHT22;17777;48.770;8.944;2024-03-29T11:31:03;16.20;53.10
31129;DHT22;17777;48.770;8.944;2024-03-29T11:33:32;16.20;53.00
31129;DHT22;17777;48.770;8.944;2024-03-29T11:38:40;16.40;52.50
31129;DHT22;17777;48.770;8.944;2024-03-29T11:41:17;16.40;52.40
31129;DHT22;17777;48.770;8.944;2024-03-29T11:43:44;16.50;52.70
31129;DHT22;17777;48.770;8.944;2024-03-29T11:46:11;16.60;52.40
31129;DHT22;17777;48.770;8.944;2024-03-29T11:48:39;16.70;52.20
31129;DHT22;17777;48.770;8.944;2024-03-29T11:51:07;16.70;52.00
31129;DHT22;17777;48.770;8.944;2024-03-29T11:53:35;16.80;52.00
31129;DHT22;17777;48.770;8.944;2024-03-29T11:56:02;16.90;51.80
31129;DHT22;17777;48.770;8.944;2024-03-29T11:58:30;17.00;51.50
31129;DHT22;17777;48.770;8.944;2024-03-29T12:00:58;17.00;51.10
31129;DHT22;17777;48.770;8.944;2024-03-29T12:03:26;17.10;50.90
31129;DHT22;17777;48.770;8.944;2024-03-29T12:05:54;17.20;50.60
31129;DHT22;17777;48.770;8.944;2024-03-29T12:08:24;17.20;50.40
31129;DHT22;17777;48.770;8.944;2024-03-29T12:10:51;17.30;50.30
31129;DHT22;17777;48.770;8.944;2024-03-29T12:13:17;17.30;50.30
31129;DHT22;17777;48.770;8.944;2024-03-29T12:15:44;17.30;50.10
31129;DHT22;17777;48.770;8.944;2024-03-29T12:18:10;17.40;49.90
31129;DHT22;17777;48.770;8.944;2024-03-29T12:20:38;17.50;49.70
31129;DHT22;17777;48.770;8.944;2024-03-29T12:23:06;17.50;49.50
31129;DHT22;17777;48.770;8.944;2024-03-29T12:25:36;17.50;49.40
31129;DHT22;17777;48.770;8.944;2024-03-29T12:28:03;17.60;49.20
31129;DHT22;17777;48.770;8.944;2024-03-29T12:30:30;17.70;49.20
31129;DHT22;17777;48.770;8.944;2024-03-29T12:33:07;17.70;49.20
31129;DHT22;17777;48.770;8.944;2024-03-29T12:35:37;17.80;48.80
31129;DHT22;17777;48.770;8.944;2024-03-29T12:38:04;17.80;49.10
31129;DHT22;17777;48.770;8.944;2024-03-29T12:40:32;17.90;49.00
31129;DHT22;17777;48.770;8.944;2024-03-29T12:43:03;17.90;48.90
31129;DHT22;17777;48.770;8.944;2024-03-29T12:45:31;17.90;48.80
31129;DHT22;17777;48.770;8.944;2024-03-29T12:47:57;18.00;48.70
31129;DHT22;17777;48.770;8.944;2024-03-29T12:53:00;18.10;48.60
31129;DHT22;17777;48.770;8.944;2024-03-29T12:55:28;18.10;48.00
31129;DHT22;17777;48.770;8.944;2024-03-29T12:58:02;18.20;48.30
31129;DHT22;17777;48.770;8.944;2024-03-29T13:00:30;18.20;48.10
31129;DHT22;17777;48.770;8.944;2024-03-29T13:02:57;18.30;48.00
31129;DHT22;17777;48.770;8.944;2024-03-29T13:05:22;18.30;48.00
31129;DHT22;17777;48.770;8.944;2024-03-29T13:07:49;18.40;48.10
31129;DHT22;17777;48.770;8.944;2024-03-29T13:10:14;18.40;48.30
31129;DHT22;17777;48.770;8.944;2024-03-29T13:12:45;18.40;48.30
31129;DHT22;17777;48.770;8.944;2024-03-29T13:15:23;18.50;48.50
31129;DHT22;17777;48.770;8.944;2024-03-29T13:17:51;18.50;48.50
31129;DHT22;17777;48.770;8.944;2024-03-29T13:20:18;18.50;48.40
31129;DHT22;17777;48.770;8.944;2024-03-29T13:22:46;18.60;48.40
31129;DHT22;17777;48.770;8.944;2024-03-29T13:25:13;18.70;48.60
31129;DHT22;17777;48.770;8.944;2024-03-29T13:27:41;18.70;48.70
31129;DHT22;17777;48.770;8.944;2024-03-29T13:30:08;18.80;48.60
31129;DHT22;17777;48.770;8.944;2024-03-29T13:32:36;18.90;48.40
31129;DHT22;17777;48.770;8.944;2024-03-29T13:35:02;19.00;48.20
31129;DHT22;17777;48.770;8.944;2024-03-29T13:37:44;19.10;48.20
31129;DHT22;17777;48.770;8.944;2024-03-29T13:40:14;19.20;48.40
31129;DHT22;17777;48.770;8.944;2024-03-29T13:42:40;19.30;48.80
31129;DHT22;17777;48.770;8.944;2024-03-29T13:45:07;19.40;49.00
31129;DHT22;17777;48.770;8.944;2024-03-29T13:47:41;19.40;49.20
31129;DHT22;17777;48.770;8.944;2024-03-29T13:50:09;19.50;49.40
31129;DHT22;17777;48.770;8.944;2024-03-29T13:52:36;19.60;49.30
31129;DHT22;17777;48.770;8.944;2024-03-29T13:55:05;19.60;49.10
31129;DHT22;17777;48.770;8.944;2024-03-29T13:57:31;19.70;49.20
31129;DHT22;17777;48.770;8.944;2024-03-29T13:59:58;19.70;49.20
31129;DHT22;17777;48.770;8.944;2024-03-29T14:02:24;19.80;49.10
31129;DHT22;17777;48.770;8.944;2024-03-29T14:04:53;19.80;48.90
31129;DHT22;17777;48.770;8.944;2024-03-29T14:07:20;19.90;48.90
31129;DHT22;17777;48.770;8.944;2024-03-29T14:09:47;19.90;48.80
31129;DHT22;17777;48.770;8.944;2024-03-29T14:12:13;19.90;48.70
31129;DHT22;17777;48.770;8.944;2024-03-29T14:14:39;20.00;48.50
31129;DHT22;17777;48.770;8.944;2024-03-29T14:17:07;20.00;48.20
31129;DHT22;17777;48.770;8.944;2024-03-29T14:19:34;20.10;48.10
31129;DHT22;17777;48.770;8.944;2024-03-29T14:22:02;20.10;47.90
31129;DHT22;17777;48.770;8.944;2024-03-29T14:24:29;20.20;47.90
31129;DHT22;17777;48.770;8.944;2024-03-29T14:26:59;20.20;47.80
31129;DHT22;17777;48.770;8.944;2024-03-29T14:29:25;20.20;47.30
31129;DHT22;17777;48.770;8.944;2024-03-29T14:31:51;20.30;47.40
31129;DHT22;17777;48.770;8.944;2024-03-29T14:34:19;20.30;47.30
31129;DHT22;17777;48.770;8.944;2024-03-29T14:36:45;20.30;47.20
31129;DHT22;17777;48.770;8.944;2024-03-29T14:39:11;20.40;46.90
31129;DHT22;17777;48.770;8.944;2024-03-29T14:41:41;20.40;46.70
31129;DHT22;17777;48.770;8.944;2024-03-29T14:44:07;20.40;46.70
31129;DHT22;17777;48.770;8.944;2024-03-29T14:46:34;20.40;46.50
31129;DHT22;17777;48.770;8.944;2024-03-29T14:49:03;20.40;46.40
31129;DHT22;17777;48.770;8.944;2024-03-29T14:51:35;20.40;46.40
31129;DHT22;17777;48.770;8.944;2024-03-29T14:54:01;20.40;46.20
31129;DHT22;17777;48.770;8.944;2024-03-29T14:56:29;20.40;46.20
31129;DHT22;17777;48.770;8.944;2024-03-29T14:59:03;20.40;46.10
31129;DHT22;17777;48.770;8.944;2024-03-29T15:01:30;20.40;45.70
31129;DHT22;17777;48.770;8.944;2024-03-29T15:03:57;20.50;46.00
31129;DHT22;17777;48.770;8.944;2024-03-29T15:06:23;20.50;46.10
31129;DHT22;17777;48.770;8.944;2024-03-29T15:08:52;20.50;45.90
31129;DHT22;17777;48.770;8.944;2024-03-29T15:11:18;20.50;45.80
31129;DHT22;17777;48.770;8.944;2024-03-29T15:13:44;20.60;45.80
31129;DHT22;17777;48.770;8.944;2024-03-29T15:16:10;20.60;45.90
31129;DHT22;17777;48.770;8.944;2024-03-29T15:18:35;20.60;46.10
31129;DHT22;17777;48.770;8.944;2024-03-29T15:21:02;20.60;46.20
31129;DHT22;17777;48.770;8.944;2024-03-29T15:23:31;20.60;46.10
31129;DHT22;17777;48.770;8.944;2024-03-29T15:25:58;20.70;46.20
31129;DHT22;17777;48.770;8.944;2024-03-29T15:28:26;20.70;46.90
31129;DHT22;17777;48.770;8.944;2024-03-29T15:31:12;20.70;46.30
31129;DHT22;17777;48.770;8.944;2024-03-29T15:33:43;20.70;46.30
31129;DHT22;17777;48.770;8.944;2024-03-29T15:36:09;20.70;46.30
31129;DHT22;17777;48.770;8.944;2024-03-29T15:38:36;20.70;46.30
31129;DHT22;17777;48.770;8.944;2024-03-29T15:41:02;20.60;46.30